Time;durP1;ratioP1;P1;durP2;ratioP2;P2;SDS_P1;SDS_P2;PMS_P1;PMS_P2;Temp;Humidity;BMP_temperature;BMP_pressure;BME280_temperature;BME280_humidity;BME280_pressure;Samples;Min_cycle;Max_cycle;Signal;HPM_P1;HPM_P2
2021/08/29 00:01:48;;;;;;;;;;;;;;;;;;;;;
2021/08/29 00:04:22;;;;;;;3.35;1.42;;;;;;;18.68;61.85;100169.69;5297656;27;20087;-83
2021/08/29 00:06:52;;;;;;;2.35;1.60;;;;;;;18.87;61.05;100161.81;5296397;27;20136;-82
2021/08/29 00:09:22;;;;;;;3.15;1.40;;;;;;;18.64;61.51;100155.66;5296044;27;20053;-82
2021/08/29 00:11:52;;;;;;;1.80;1.37;;;;;;;18.74;60.95;100150.84;5296344;27;20061;-83
2021/08/29 00:14:19;;;;;;;1.95;1.30;;;;;;;18.47;61.57;100143.09;5296115;27;20060;-82
2021/08/29 00:16:47;;;;;;;3.30;1.70;;;;;;;18.70;60.66;100141.22;5296187;27;20086;-83
2021/08/29 00:19:14;;;;;;;3.10;1.37;;;;;;;18.53;61.10;100147.25;5296138;27;20116;-82
2021/08/29 00:21:41;;;;;;;2.45;1.75;;;;;;;18.46;61.60;100143.16;5296128;27;20457;-82
2021/08/29 00:24:08;;;;;;;1.98;1.37;;;;;;;18.48;61.13;100151.94;5296096;27;20065;-82
2021/08/29 00:26:36;;;;;;;2.28;1.50;;;;;;;18.50;61.03;100156.25;5296035;27;20061;-82
2021/08/29 00:29:03;;;;;;;2.50;0.98;;;;;;;18.47;60.87;100143.09;5296004;27;20095;-83
2021/08/29 00:31:30;;;;;;;2.55;1.77;;;;;;;18.43;61.04;100129.97;5296190;27;20506;-82
2021/08/29 00:33:57;;;;;;;2.70;1.55;;;;;;;18.68;60.37;100127.09;5295955;27;20140;-82
2021/08/29 00:36:24;;;;;;;4.62;2.08;;;;;;;18.66;60.63;100129.84;5296094;27;20057;-82
2021/08/29 00:38:51;;;;;;;3.20;1.90;;;;;;;18.44;61.17;100137.88;5296101;27;20129;-82
2021/08/29 00:41:18;;;;;;;4.10;1.95;;;;;;;18.45;60.69;100134.31;5295952;27;20077;-82
2021/08/29 00:43:45;;;;;;;3.22;1.55;;;;;;;18.14;60.60;100138.22;5295764;27;20076;-81
2021/08/29 00:46:12;;;;;;;4.87;1.65;;;;;;;18.18;61.60;100139.00;5296445;27;20562;-83
2021/08/29 00:48:49;;;;;;;5.10;1.73;;;;;;;17.98;62.40;100131.81;5295736;27;20111;-82
2021/08/29 00:51:16;;;;;;;2.12;1.58;;;;;;;17.76;63.12;100129.09;5296252;27;20129;-83
2021/08/29 00:53:53;;;;;;;5.03;1.98;;;;;;;17.70;62.62;100129.34;5295869;27;20469;-82
2021/08/29 00:56:21;;;;;;;3.35;1.55;;;;;;;17.99;62.07;100122.06;5315952;26;20106;-82
2021/08/29 00:58:50;;;;;;;2.40;1.75;;;;;;;17.88;62.07;100115.37;5299831;27;20056;-81
2021/08/29 01:01:28;;;;;;;3.33;2.10;;;;;;;17.79;62.04;100115.72;5299986;27;20057;-82
2021/08/29 01:04:00;;;;;;;3.05;1.92;;;;;;;17.73;62.15;100115.94;5300251;27;20127;-82
2021/08/29 01:06:42;;;;;;;5.25;1.95;;;;;;;17.80;62.08;100117.50;5300064;27;20083;-82
2021/08/29 01:09:12;;;;;;;3.42;2.12;;;;;;;17.85;61.55;100109.31;5299868;27;20079;-82
2021/08/29 01:11:43;;;;;;;5.37;2.05;;;;;;;17.74;61.58;100106.22;5299766;27;20120;-82
2021/08/29 01:14:12;;;;;;;6.30;2.42;;;;;;;17.96;60.50;100104.44;5299697;27;20083;-82
2021/08/29 01:16:42;;;;;;;3.22;1.33;;;;;;;17.71;60.67;100112.50;5299861;27;20063;-82
2021/08/29 01:19:14;;;;;;;4.85;2.03;;;;;;;17.83;60.39;100111.19;5299902;27;20663;-82
2021/08/29 01:21:43;;;;;;;3.12;1.62;;;;;;;17.78;60.54;100107.84;5299850;27;20072;-81
2021/08/29 01:24:14;;;;;;;5.60;2.28;;;;;;;17.71;60.77;100109.84;5299766;27;20065;-82
2021/08/29 01:27:15;;;;;;;3.50;2.05;;;;;;;17.73;61.12;100110.63;5299866;27;20095;-81
2021/08/29 01:29:42;;;;;;;4.15;1.62;;;;;;;17.36;62.36;100105.91;5299734;27;20057;-82
2021/08/29 01:32:10;;;;;;;6.78;3.10;;;;;;;17.52;61.20;100100.88;5299636;27;20119;-82
2021/08/29 01:34:37;;;;;;;3.00;1.37;;;;;;;17.22;61.74;100109.09;5299252;27;20068;-82
2021/08/29 01:37:05;;;;;;;2.33;1.50;;;;;;;17.36;61.97;100103.25;5299626;27;20080;-81
2021/08/29 01:39:33;;;;;;;5.40;1.60;;;;;;;17.46;61.52;100112.59;5299071;27;20060;-81
2021/08/29 01:42:00;;;;;;;3.50;1.50;;;;;;;17.41;60.98;100109.22;5299482;27;20075;-82
2021/08/29 01:44:28;;;;;;;4.00;1.40;;;;;;;17.12;61.54;100116.53;5299626;27;20063;-82
2021/08/29 01:46:56;;;;;;;3.55;1.73;;;;;;;17.21;60.31;100115.34;5299619;27;20132;-82
2021/08/29 01:49:24;;;;;;;4.30;2.03;;;;;;;17.37;60.73;100116.47;5299712;27;20048;-82
2021/08/29 01:51:51;;;;;;;2.67;2.20;;;;;;;17.49;59.94;100123.94;5299878;27;20064;-82
2021/08/29 01:54:19;;;;;;;2.85;1.58;;;;;;;17.42;60.15;100127.78;5299369;26;20065;-82
2021/08/29 01:57:13;;;;;;;3.17;1.70;;;;;;;17.50;60.48;100130.16;5299606;27;20119;-82
2021/08/29 01:59:45;;;;;;;2.60;1.92;;;;;;;17.42;61.25;100135.75;5299536;27;20092;-83
2021/08/29 02:02:15;;;;;;;7.82;2.10;;;;;;;17.46;61.52;100133.84;5299766;27;20084;-81
2021/08/29 02:04:44;;;;;;;4.30;2.12;;;;;;;17.62;61.33;100129.69;5318180;27;20541;-82
2021/08/29 02:07:14;;;;;;;2.60;1.60;;;;;;;17.52;61.88;100122.13;5317970;27;20068;-82
2021/08/29 02:09:45;;;;;;;3.00;1.83;;;;;;;17.52;61.89;100122.13;5318115;27;20067;-82
2021/08/29 02:12:12;;;;;;;6.78;1.67;;;;;;;17.23;61.82;100127.59;5299634;27;20493;-81
2021/08/29 02:15:01;;;;;;;4.43;1.85;;;;;;;17.55;61.47;100116.69;5299508;27;20064;-82
2021/08/29 02:17:29;;;;;;;3.17;1.95;;;;;;;17.60;62.16;100115.56;5319364;27;20087;-82
2021/08/29 02:20:00;;;;;;;3.05;1.80;;;;;;;17.42;62.66;100109.19;5299487;27;20063;-82
2021/08/29 02:22:27;;;;;;;1.83;1.40;;;;;;;17.31;63.40;100103.41;5300174;27;20069;-82
2021/08/29 02:24:55;;;;;;;2.03;1.45;;;;;;;17.10;64.33;100109.56;5299384;27;20068;-82
2021/08/29 02:27:22;;;;;;;2.80;1.60;;;;;;;17.28;63.44;100100.88;5299598;27;20078;-82
2021/08/29 02:29:50;;;;;;;1.67;1.35;;;;;;;17.46;62.75;100099.31;5317687;27;20091;-81
2021/08/29 02:32:17;;;;;;;1.62;1.27;;;;;;;17.30;62.61;100096.38;5299722;27;20073;-83
2021/08/29 02:34:44;;;;;;;1.80;1.10;;;;;;;17.25;62.12;100099.22;5299124;27;20096;-82
2021/08/29 02:37:12;;;;;;;2.58;1.45;;;;;;;16.21;65.12;100107.38;5299502;27;20175;-81
2021/08/29 02:39:40;;;;;;;1.87;1.33;;;;;;;17.09;62.40;100091.87;5299337;27;20065;-81
2021/08/29 02:42:09;;;;;;;1.62;0.95;;;;;;;17.23;62.00;100085.13;5299486;27;20060;-82
2021/08/29 02:44:38;;;;;;;2.10;1.60;;;;;;;17.25;62.29;100098.34;5299737;27;20064;-82
2021/08/29 02:47:07;;;;;;;2.17;1.30;;;;;;;16.72;63.60;100095.84;5299539;27;20111;-81
2021/08/29 02:49:35;;;;;;;1.42;1.08;;;;;;;17.06;62.31;100097.28;5299120;27;20120;-82
2021/08/29 02:52:03;;;;;;;2.10;1.42;;;;;;;16.79;63.26;100095.63;5299407;27;20116;-82
2021/08/29 02:54:30;;;;;;;1.50;1.20;;;;;;;16.96;62.55;100091.47;5298974;26;20068;-82
2021/08/29 02:56:58;;;;;;;1.95;1.12;;;;;;;16.85;62.78;100091.84;5299248;27;20070;-82
2021/08/29 02:59:26;;;;;;;1.20;1.08;;;;;;;16.88;62.78;100090.88;5299309;27;20048;-81
2021/08/29 03:01:53;;;;;;;2.75;1.25;;;;;;;16.84;62.72;100087.47;5299448;27;20061;-82
2021/08/29 03:04:20;;;;;;;2.03;1.10;;;;;;;16.83;62.60;100085.75;5299178;27;20083;-81
2021/08/29 03:06:47;;;;;;;2.50;1.30;;;;;;;17.18;61.78;100091.56;5299157;27;20124;-82
2021/08/29 03:09:14;;;;;;;3.60;1.17;;;;;;;17.11;61.78;100090.91;5299612;27;20060;-82
2021/08/29 03:11:41;;;;;;;3.97;1.00;;;;;;;17.15;61.51;100089.88;5299045;27;20718;-81
2021/08/29 03:14:09;;;;;;;1.60;1.12;;;;;;;17.25;61.79;100093.03;5299123;27;20064;-81
2021/08/29 03:16:36;;;;;;;2.20;1.10;;;;;;;17.36;62.02;100089.97;5299269;27;20057;-82
2021/08/29 03:19:04;;;;;;;1.75;1.15;;;;;;;17.47;61.55;100093.94;5299433;27;20053;-82
2021/08/29 03:21:32;;;;;;;1.27;1.10;;;;;;;17.43;61.21;100094.97;5299042;27;21019;-82
2021/08/29 03:23:59;;;;;;;2.10;1.27;;;;;;;17.48;60.65;100100.12;5299451;27;20172;-82
2021/08/29 03:26:26;;;;;;;2.28;1.30;;;;;;;17.63;60.49;100110.12;5299048;27;20128;-82
2021/08/29 03:28:53;;;;;;;5.20;1.40;;;;;;;17.12;62.34;100111.22;5299000;27;20096;-82
2021/08/29 03:31:21;;;;;;;2.53;1.50;;;;;;;17.00;62.56;100107.25;5298896;27;20064;-82
2021/08/29 03:33:51;;;;;;;1.62;1.05;;;;;;;17.29;61.57;100107.06;5299148;27;20060;-82
2021/08/29 03:36:23;;;;;;;3.08;1.33;;;;;;;17.33;61.11;100112.22;5298876;27;20053;-83
2021/08/29 03:38:50;;;;;;;4.10;1.58;;;;;;;17.43;60.80;100113.56;5298978;27;20122;-82
2021/08/29 03:41:18;;;;;;;2.20;1.40;;;;;;;17.64;59.99;100108.34;5298968;27;20083;-82
2021/08/29 03:43:45;;;;;;;3.53;1.35;;;;;;;17.65;59.98;100102.97;5299305;27;20539;-82
2021/08/29 03:46:16;;;;;;;2.62;1.60;;;;;;;17.65;60.05;100104.78;5298881;27;20056;-82
2021/08/29 03:48:44;;;;;;;3.17;1.50;;;;;;;17.54;60.52;100099.88;5299194;27;20102;-82
2021/08/29 03:51:14;;;;;;;2.40;1.52;;;;;;;17.32;60.69;100102.47;5298671;27;20088;-82
2021/08/29 03:53:43;;;;;;;3.55;1.70;;;;;;;17.38;60.93;100096.97;5299101;27;20060;-82
2021/08/29 03:56:13;;;;;;;4.60;1.35;;;;;;;17.47;60.93;100104.56;5298838;27;20139;-82
2021/08/29 03:58:41;;;;;;;2.05;1.42;;;;;;;17.38;61.23;100101.37;5299010;27;20083;-83
2021/08/29 04:01:09;;;;;;;1.35;1.25;;;;;;;17.38;61.19;100099.62;5299208;27;20065;-82
2021/08/29 04:03:37;;;;;;;1.58;1.08;;;;;;;17.39;60.94;100104.00;5300070;27;20108;-82
2021/08/29 04:06:04;;;;;;;3.37;1.25;;;;;;;17.22;60.98;100103.78;5300230;27;20057;-82
2021/08/29 04:08:37;;;;;;;1.02;0.80;;;;;;;17.18;60.64;100099.53;5299923;27;20058;-82
2021/08/29 04:11:08;;;;;;;1.92;1.52;;;;;;;17.34;60.07;100105.09;5299975;27;20086;-82
2021/08/29 04:13:37;;;;;;;1.73;1.20;;;;;;;17.25;60.00;100104.50;5300193;27;20068;-81
2021/08/29 04:16:04;;;;;;;2.53;2.03;;;;;;;17.27;60.88;100111.59;5299824;27;20072;-81
2021/08/29 04:18:49;;;;;;;3.60;1.37;;;;;;;17.36;60.51;100114.75;5299993;27;20044;-81
2021/08/29 04:21:21;;;;;;;2.97;1.33;;;;;;;17.27;61.59;100119.53;5300020;27;20085;-82
2021/08/29 04:23:48;;;;;;;3.33;1.30;;;;;;;17.00;62.23;100120.50;5299908;27;20080;-81
2021/08/29 04:26:15;;;;;;;3.20;1.50;;;;;;;16.95;63.87;100111.84;5299842;27;20453;-81
2021/08/29 04:28:43;;;;;;;4.40;2.08;;;;;;;17.29;62.31;100115.88;5299816;27;20072;-81
2021/08/29 04:31:37;;;;;;;4.50;1.87;;;;;;;17.56;61.68;100127.25;5299770;27;20116;-82
2021/08/29 04:34:08;;;;;;;2.92;1.48;;;;;;;18.25;59.77;100129.81;5295140;27;20076;-82
2021/08/29 04:36:37;;;;;;;1.87;1.52;;;;;;;19.22;56.49;100123.81;5299385;27;20434;-81
2021/08/29 04:39:07;;;;;;;5.30;1.55;;;;;;;19.78;54.45;100119.47;5299825;27;20088;-82
2021/08/29 04:41:36;;;;;;;4.22;1.48;;;;;;;20.40;52.06;100106.59;5299839;27;20108;-82
2021/08/29 04:44:04;;;;;;;4.05;2.28;;;;;;;21.18;49.01;100109.66;5299881;27;20064;-82
2021/08/29 04:46:31;;;;;;;2.90;1.33;;;;;;;21.42;49.21;100107.50;5299869;27;20060;-82
2021/08/29 04:48:59;;;;;;;3.58;1.98;;;;;;;21.44;48.82;100102.91;5299786;27;20087;-82
2021/08/29 04:51:26;;;;;;;5.18;2.10;;;;;;;21.38;48.37;100100.59;5299825;27;20061;-81
2021/08/29 04:53:53;;;;;;;3.53;1.40;;;;;;;21.61;48.22;100091.28;5299682;27;20122;-81
2021/08/29 04:56:20;;;;;;;1.77;1.27;;;;;;;22.02;46.86;100093.41;5299633;27;20052;-81
2021/08/29 04:58:47;;;;;;;4.57;1.00;;;;;;;22.61;45.51;100092.56;5299633;27;20124;-83
2021/08/29 05:01:14;;;;;;;1.60;1.00;;;;;;;22.69;44.61;100092.13;5299789;27;20330;-83
2021/08/29 05:03:41;;;;;;;7.82;1.27;;;;;;;23.64;43.21;100088.84;5299765;27;20469;-82
2021/08/29 05:06:08;;;;;;;1.35;0.75;;;;;;;24.14;41.74;100090.03;5299792;27;20455;-82
2021/08/29 05:08:35;;;;;;;2.35;0.85;;;;;;;24.36;41.52;100084.09;5299860;27;20549;-82
2021/08/29 05:11:02;;;;;;;2.00;0.80;;;;;;;24.85;40.00;100069.94;5300354;27;20080;-82
2021/08/29 05:13:29;;;;;;;3.28;1.00;;;;;;;25.43;39.24;100077.56;5299218;27;20084;-82
2021/08/29 05:15:56;;;;;;;1.10;0.65;;;;;;;25.45;38.84;100071.09;5299944;27;20066;-82
2021/08/29 05:18:23;;;;;;;1.62;0.80;;;;;;;25.56;38.77;100073.88;5299658;27;20127;-82
2021/08/29 05:20:50;;;;;;;6.22;1.95;;;;;;;25.49;39.26;100071.72;5299530;27;20072;-82
2021/08/29 05:23:31;;;;;;;1.27;0.70;;;;;;;25.42;38.68;100075.84;5318328;27;20077;-82
2021/08/29 05:26:00;;;;;;;2.65;0.95;;;;;;;25.83;38.19;100070.13;5299768;27;20124;-82
2021/08/29 05:28:27;;;;;;;2.67;1.10;;;;;;;25.66;38.63;100068.66;5299800;27;20059;-82
2021/08/29 05:30:54;;;;;;;2.08;1.10;;;;;;;25.53;38.91;100066.03;5299731;27;20122;-82
2021/08/29 05:33:21;;;;;;;1.65;0.93;;;;;;;25.39;38.33;100068.84;5299832;27;20176;-82
2021/08/29 05:35:48;;;;;;;1.15;0.80;;;;;;;24.98;39.57;100067.28;5299581;27;20075;-82
2021/08/29 05:38:15;;;;;;;1.42;0.95;;;;;;;24.55;40.80;100072.09;5299633;27;20116;-83
2021/08/29 05:40:42;;;;;;;1.25;0.70;;;;;;;24.39;41.62;100072.28;5299746;27;20065;-82
2021/08/29 05:43:09;;;;;;;1.80;0.93;;;;;;;24.09;41.92;100076.06;5317905;27;20080;-82
2021/08/29 05:45:36;;;;;;;1.67;1.10;;;;;;;24.44;40.94;100062.97;5299650;27;20094;-82
2021/08/29 05:48:03;;;;;;;1.40;0.88;;;;;;;24.55;40.98;100064.03;5299934;27;20090;-82
2021/08/29 05:50:30;;;;;;;2.17;0.70;;;;;;;24.65;40.56;100062.47;5299635;27;20060;-81
2021/08/29 05:52:57;;;;;;;1.25;0.90;;;;;;;24.58;40.59;100059.31;5299607;27;20073;-82
2021/08/29 05:55:24;;;;;;;1.55;0.90;;;;;;;24.88;41.11;100053.66;5299349;27;20491;-81
2021/08/29 05:57:52;;;;;;;1.67;1.00;;;;;;;24.97;40.17;100056.63;5299665;27;20052;-81
2021/08/29 06:00:20;;;;;;;2.67;1.27;;;;;;;25.20;40.25;100060.38;5299685;27;20484;-81
2021/08/29 06:02:47;;;;;;;2.25;1.30;;;;;;;24.85;39.60;100051.16;5319302;27;20060;-82
2021/08/29 06:05:15;;;;;;;1.85;1.27;;;;;;;24.53;41.10;100055.22;5299873;27;20119;-82
2021/08/29 06:07:42;;;;;;;3.10;1.75;;;;;;;24.42;41.03;100059.53;5299498;27;20124;-82
2021/08/29 06:10:11;;;;;;;1.90;1.50;;;;;;;21.33;47.45;100055.41;5299708;27;20076;-82
2021/08/29 06:12:39;;;;;;;5.57;1.77;;;;;;;20.55;49.93;100064.97;5299371;27;20092;-82
2021/08/29 06:15:08;;;;;;;2.60;1.85;;;;;;;21.53;47.64;100055.19;5299374;27;20107;-82
2021/08/29 06:17:35;;;;;;;2.85;1.67;;;;;;;21.92;47.12;100061.84;5299534;27;20446;-82
2021/08/29 06:20:04;;;;;;;2.40;1.77;;;;;;;21.41;47.92;100061.19;5299464;27;20075;-82
2021/08/29 06:22:31;;;;;;;3.00;1.50;;;;;;;21.68;47.61;100060.59;5299469;27;20124;-82
2021/08/29 06:24:58;;;;;;;6.85;1.42;;;;;;;20.89;49.38;100061.37;5299251;27;20171;-82
2021/08/29 06:27:25;;;;;;;2.25;1.65;;;;;;;21.46;48.82;100055.59;5299284;27;20072;-83
2021/08/29 06:29:52;;;;;;;2.17;1.50;;;;;;;21.54;48.50;100062.25;5299845;27;20061;-83
2021/08/29 06:32:21;;;;;;;2.15;1.48;;;;;;;21.07;49.10;100063.03;5299514;27;20106;-82
2021/08/29 06:34:48;;;;;;;3.95;1.60;;;;;;;20.91;49.97;100058.59;5299164;27;20060;-82
2021/08/29 06:37:17;;;;;;;2.95;2.30;;;;;;;20.86;50.11;100065.06;5317822;27;20390;-82
2021/08/29 06:39:44;;;;;;;;;;;;;;;20.03;51.48;100063.13;5299680;27;20089;-82
2021/08/29 06:42:11;;;;;;;3.53;1.80;;;;;;;20.41;50.94;100052.28;5318000;27;20307;-82
2021/08/29 06:44:38;;;;;;;3.03;1.77;;;;;;;20.01;52.31;100059.69;5299516;27;20056;-82
2021/08/29 06:47:05;;;;;;;2.75;2.08;;;;;;;20.83;50.53;100051.88;5299410;27;20116;-82
2021/08/29 06:49:32;;;;;;;2.50;2.10;;;;;;;19.52;53.97;100059.38;5299192;27;20073;-83
2021/08/29 06:51:59;;;;;;;2.40;2.00;;;;;;;20.41;52.30;100053.19;5299460;27;20473;-82
2021/08/29 06:54:33;;;;;;;2.55;2.22;;;;;;;20.80;51.83;100056.53;5300239;26;20086;-82
2021/08/29 06:57:00;;;;;;;4.93;1.95;;;;;;;21.05;51.04;100053.38;5299325;27;20056;-81
2021/08/29 06:59:27;;;;;;;2.47;1.60;;;;;;;21.62;48.60;100036.87;5299431;27;20073;-82
2021/08/29 07:01:54;;;;;;;2.83;1.70;;;;;;;22.07;49.63;100037.84;5299373;27;20069;-81
2021/08/29 07:04:22;;;;;;;2.22;1.77;;;;;;;22.40;48.19;100035.84;5299375;27;20431;-82
2021/08/29 07:06:49;;;;;;;2.28;1.48;;;;;;;22.32;46.81;100038.09;5299351;27;20062;-81
2021/08/29 07:09:15;;;;;;;2.85;1.58;;;;;;;22.89;47.31;100038.19;5299060;27;20072;-83
2021/08/29 07:11:42;;;;;;;2.05;1.73;;;;;;;23.74;45.48;100030.13;5299284;27;20079;-81
2021/08/29 07:14:09;;;;;;;2.42;1.80;;;;;;;24.06;43.83;100017.25;5299228;27;20069;-82
2021/08/29 07:16:36;;;;;;;3.45;2.10;;;;;;;24.05;43.63;100018.19;5299256;27;20117;-82
2021/08/29 07:19:03;;;;;;;3.40;1.67;;;;;;;24.00;42.77;100017.63;5299211;27;20084;-82
2021/08/29 07:21:30;;;;;;;2.75;1.80;;;;;;;23.21;44.08;100015.72;5299198;27;20061;-82
2021/08/29 07:23:58;;;;;;;3.62;2.00;;;;;;;22.66;46.10;100023.53;5299271;27;20123;-82
2021/08/29 07:26:25;;;;;;;2.62;1.62;;;;;;;22.72;45.74;100016.94;5298858;27;20052;-82
2021/08/29 07:28:52;;;;;;;2.28;1.83;;;;;;;22.69;46.19;100014.47;5299347;27;20062;-83
2021/08/29 07:31:19;;;;;;;2.75;2.20;;;;;;;22.17;47.25;100010.47;5299153;27;20332;-83
2021/08/29 07:33:46;;;;;;;2.30;1.80;;;;;;;21.75;50.31;100000.47;5317432;27;20064;-82
2021/08/29 07:36:13;;;;;;;3.37;1.95;;;;;;;23.15;48.37;100000.88;5298814;27;20109;-82
2021/08/29 07:38:40;;;;;;;2.33;1.55;;;;;;;22.58;46.47;100004.41;5300257;27;20088;-82
2021/08/29 07:41:07;;;;;;;2.20;1.60;;;;;;;23.31;44.40;99995.38;5300161;27;20094;-82
2021/08/29 07:43:34;;;;;;;2.70;1.50;;;;;;;23.49;45.47;99994.16;5299767;27;20064;-82
2021/08/29 07:46:02;;;;;;;3.92;2.08;;;;;;;23.50;44.64;99995.00;5300027;27;20053;-82
2021/08/29 07:48:29;;;;;;;3.83;1.80;;;;;;;23.95;44.83;100004.53;5299957;27;20112;-82
2021/08/29 07:50:57;;;;;;;3.60;1.95;;;;;;;22.58;45.26;100008.91;5299841;27;20097;-83
2021/08/29 07:53:24;;;;;;;2.35;1.62;;;;;;;21.61;48.21;100009.28;5300305;27;20394;-82
2021/08/29 07:55:51;;;;;;;1.77;1.30;;;;;;;22.92;45.77;100012.16;5319231;26;20066;-82
2021/08/29 07:58:18;;;;;;;3.85;1.85;;;;;;;22.70;45.49;100013.50;5299853;27;20572;-83
2021/08/29 08:00:45;;;;;;;1.87;1.62;;;;;;;23.19;44.17;100010.44;5299866;27;20081;-82
2021/08/29 08:03:13;;;;;;;1.83;1.40;;;;;;;22.71;44.88;100022.38;5300229;27;20106;-82
2021/08/29 08:05:41;;;;;;;1.75;1.50;;;;;;;22.66;44.52;100011.97;5300088;27;20056;-83
2021/08/29 08:08:08;;;;;;;2.30;2.00;;;;;;;23.09;45.69;100007.50;5300115;27;20066;-83
2021/08/29 08:10:35;;;;;;;2.62;1.65;;;;;;;23.05;46.61;100018.47;5299909;27;20083;-82
2021/08/29 08:13:02;;;;;;;4.55;1.67;;;;;;;23.42;44.85;100010.78;5300088;27;20127;-82
2021/08/29 08:15:30;;;;;;;2.62;1.70;;;;;;;24.02;43.50;100008.53;5299754;27;20098;-82
2021/08/29 08:17:57;;;;;;;3.40;1.92;;;;;;;24.22;41.27;100006.31;5299997;27;20065;-82
2021/08/29 08:20:25;;;;;;;3.47;1.50;;;;;;;22.84;43.28;100008.12;5300122;27;20064;-82
2021/08/29 08:22:52;;;;;;;2.95;2.25;;;;;;;22.93;47.06;100014.72;5299774;27;20086;-83
2021/08/29 08:25:21;;;;;;;2.47;2.15;;;;;;;23.30;44.25;100010.59;5299434;27;20096;-82
2021/08/29 08:27:48;;;;;;;3.20;1.87;;;;;;;23.40;42.96;100002.81;5299620;27;20072;-83
2021/08/29 08:30:16;;;;;;;2.05;1.85;;;;;;;23.78;45.66;100012.88;5299787;27;20064;-82
2021/08/29 08:32:43;;;;;;;3.33;1.80;;;;;;;23.94;44.27;100000.16;5299771;27;20056;-82
2021/08/29 08:35:10;;;;;;;2.35;1.80;;;;;;;22.67;44.99;100005.66;5299323;27;20386;-83
2021/08/29 08:37:37;;;;;;;3.30;1.85;;;;;;;22.08;46.95;100002.94;5299843;27;20073;-82
2021/08/29 08:40:05;;;;;;;2.72;2.08;;;;;;;22.60;47.54;99999.81;5299846;27;20073;-82
2021/08/29 08:42:33;;;;;;;3.00;2.15;;;;;;;22.66;48.32;99999.44;5299721;27;20065;-83
2021/08/29 08:45:00;;;;;;;4.35;2.10;;;;;;;23.06;44.68;99990.72;5299501;27;20131;-83
2021/08/29 08:47:31;;;;;;;2.72;2.03;;;;;;;23.14;44.33;99996.47;5300172;27;20065;-82
2021/08/29 08:50:00;;;;;;;4.07;1.87;;;;;;;23.46;42.91;99994.37;5299671;27;20373;-82
2021/08/29 08:52:29;;;;;;;2.42;1.70;;;;;;;23.81;42.78;99988.50;5299799;27;20056;-82
2021/08/29 08:54:59;;;;;;;1.73;1.40;;;;;;;24.87;46.92;99995.47;5299387;27;20353;-83
2021/08/29 08:57:27;;;;;;;4.45;1.50;;;;;;;25.44;40.33;99990.50;5299765;27;20075;-82
2021/08/29 08:59:57;;;;;;;2.17;1.58;;;;;;;25.34;39.45;99995.72;5299439;27;20060;-82
2021/08/29 09:02:24;;;;;;;2.85;1.55;;;;;;;25.12;38.50;99993.72;5299629;27;20069;-82
2021/08/29 09:04:52;;;;;;;4.20;1.30;;;;;;;24.11;40.94;99996.28;5299540;27;20057;-82
2021/08/29 09:07:19;;;;;;;1.77;1.30;;;;;;;24.15;42.42;99992.47;5299853;27;20065;-82
2021/08/29 09:09:46;;;;;;;2.25;1.48;;;;;;;25.21;40.35;99992.19;5299741;27;20065;-82
2021/08/29 09:12:14;;;;;;;1.55;1.45;;;;;;;25.04;40.61;99994.25;5299527;27;20060;-83
2021/08/29 09:14:44;;;;;;;3.87;1.58;;;;;;;25.48;40.22;99990.19;5299340;27;20087;-82
2021/08/29 09:17:29;;;;;;;1.95;1.30;;;;;;;25.06;41.08;99989.66;5299711;27;20481;-82
2021/08/29 09:20:15;;;;;;;2.85;1.87;;;;;;;25.53;40.55;99993.41;5317816;27;20405;-82
2021/08/29 09:22:45;;;;;;;2.08;1.60;;;;;;;24.92;41.23;99993.31;5299852;27;20770;-82
2021/08/29 09:25:18;;;;;;;2.40;1.35;;;;;;;25.22;38.58;99978.66;5299606;27;20066;-82
2021/08/29 09:27:47;;;;;;;2.15;1.33;;;;;;;25.36;39.49;99991.94;5299578;27;20083;-82
2021/08/29 09:30:15;;;;;;;2.45;1.42;;;;;;;24.97;39.05;99984.91;5299357;27;20103;-82
2021/08/29 09:32:48;;;;;;;4.97;1.85;;;;;;;24.69;39.52;99981.53;5299493;27;20104;-82
2021/08/29 09:35:16;;;;;;;1.27;1.00;;;;;;;24.54;40.17;99981.78;5299260;27;20049;-82
2021/08/29 09:37:43;;;;;;;2.92;1.30;;;;;;;24.59;38.80;99985.84;5299580;27;20076;-82
2021/08/29 09:40:26;;;;;;;1.05;0.93;;;;;;;24.86;40.66;99988.41;5299572;27;20119;-82
2021/08/29 09:42:55;;;;;;;3.00;1.10;;;;;;;24.80;39.76;99979.91;5299774;27;20067;-81
2021/08/29 09:45:25;;;;;;;2.75;1.10;;;;;;;25.02;39.51;99979.22;5299461;27;20377;-83
2021/08/29 09:47:58;;;;;;;1.48;1.20;;;;;;;24.39;41.62;99991.72;5299697;27;20484;-82
2021/08/29 09:50:26;;;;;;;2.03;1.33;;;;;;;25.00;39.67;99984.72;5299934;27;20120;-82
2021/08/29 09:53:03;;;;;;;2.15;1.50;;;;;;;23.21;41.70;99988.91;5299522;27;20065;-82
2021/08/29 09:55:36;;;;;;;2.50;1.37;;;;;;;24.37;41.08;99988.28;5298936;27;20073;-82
2021/08/29 09:58:23;;;;;;;2.28;1.37;;;;;;;23.63;41.29;99997.75;5299783;27;20076;-83
2021/08/29 10:01:14;;;;;;;3.12;1.52;;;;;;;23.72;41.39;99979.25;5317327;27;20451;-82
2021/08/29 10:03:44;;;;;;;1.70;1.45;;;;;;;24.33;40.92;99989.47;5299999;27;20057;-82
2021/08/29 10:06:18;;;;;;;3.70;1.45;;;;;;;23.88;40.49;99979.06;5299642;27;20411;-82
2021/08/29 10:08:51;;;;;;;1.95;1.50;;;;;;;24.13;41.21;99975.59;5300082;27;20535;-82
2021/08/29 10:11:20;;;;;;;1.73;1.30;;;;;;;23.35;41.02;99984.38;5299555;27;20069;-82
2021/08/29 10:13:48;;;;;;;1.67;1.30;;;;;;;23.66;42.10;99985.00;5299526;27;20456;-82
2021/08/29 10:16:17;;;;;;;2.67;1.70;;;;;;;23.33;41.75;99982.75;5299007;27;20061;-82
2021/08/29 10:18:49;;;;;;;2.40;1.60;;;;;;;23.65;42.61;99982.41;5299403;27;20095;-82
2021/08/29 10:21:22;;;;;;;3.25;2.12;;;;;;;23.34;44.21;99984.44;5319282;27;20148;-82
2021/08/29 10:23:52;;;;;;;2.47;1.27;;;;;;;23.85;40.83;99973.06;5299553;27;20069;-82
2021/08/29 10:26:22;;;;;;;1.48;1.37;;;;;;;23.31;43.28;99974.78;5299407;27;20060;-82
2021/08/29 10:29:05;;;;;;;1.50;1.25;;;;;;;23.35;41.95;99975.44;5299426;27;20092;-82
2021/08/29 10:31:41;;;;;;;1.75;1.30;;;;;;;23.20;41.49;99971.94;5299532;27;20137;-82
2021/08/29 10:34:08;;;;;;;6.37;1.90;;;;;;;23.84;41.86;99971.34;5299440;27;20134;-82
2021/08/29 10:36:36;;;;;;;1.90;1.23;;;;;;;24.00;41.17;99958.59;5317666;27;20128;-82
2021/08/29 10:39:04;;;;;;;1.83;1.55;;;;;;;24.46;41.92;99958.13;5299441;27;20418;-82
2021/08/29 10:41:31;;;;;;;4.68;1.60;;;;;;;23.79;40.63;99966.28;5299281;27;20068;-82
2021/08/29 10:43:59;;;;;;;3.08;1.30;;;;;;;24.20;41.54;99960.78;5299453;27;20122;-83
2021/08/29 10:46:26;;;;;;;3.25;1.52;;;;;;;23.87;41.12;99955.06;5299057;27;20053;-82
2021/08/29 10:48:55;;;;;;;1.50;1.30;;;;;;;24.40;41.64;99955.84;5299417;27;20057;-82
2021/08/29 10:51:27;;;;;;;1.87;1.23;;;;;;;24.53;38.99;99950.50;5299579;27;20158;-83
2021/08/29 10:53:56;;;;;;;2.53;1.40;;;;;;;24.49;38.85;99955.22;5299233;27;20079;-82
2021/08/29 10:56:23;;;;;;;2.22;1.60;;;;;;;24.72;38.76;99947.37;5298964;27;20061;-82
2021/08/29 10:59:07;;;;;;;1.98;1.40;;;;;;;22.99;41.34;99957.25;5299886;27;20057;-82
2021/08/29 11:01:39;;;;;;;2.60;1.10;;;;;;;22.75;42.07;99948.94;5299158;27;20076;-82
2021/08/29 11:04:22;;;;;;;4.28;1.70;;;;;;;23.47;40.99;99952.31;5299529;27;20127;-82
2021/08/29 11:06:52;;;;;;;1.37;1.15;;;;;;;24.27;41.75;99929.00;5299120;27;20078;-82
2021/08/29 11:09:34;;;;;;;2.17;1.40;;;;;;;23.94;38.74;99945.59;5299490;27;20098;-82
2021/08/29 11:12:06;;;;;;;2.05;1.40;;;;;;;24.06;39.36;99943.91;5299455;27;20155;-82
2021/08/29 11:14:49;;;;;;;1.20;1.10;;;;;;;22.68;41.35;99952.00;5318395;27;20057;-82
2021/08/29 11:17:22;;;;;;;1.35;1.10;;;;;;;22.19;42.50;99946.16;5299960;27;20063;-82
2021/08/29 11:19:53;;;;;;;3.35;1.70;;;;;;;22.35;42.89;99948.75;5300285;27;20076;-82
2021/08/29 11:22:23;;;;;;;2.72;1.75;;;;;;;23.11;41.46;99945.75;5299885;27;20148;-82
2021/08/29 11:24:57;;;;;;;1.48;0.95;;;;;;;22.13;43.11;99947.34;5300404;27;20129;-82
2021/08/29 11:27:33;;;;;;;2.85;1.15;;;;;;;22.97;41.14;99945.78;5318253;27;20092;-82
2021/08/29 11:30:08;;;;;;;1.98;1.25;;;;;;;22.90;40.31;99943.47;5300156;27;20130;-82
2021/08/29 11:32:46;;;;;;;3.08;1.40;;;;;;;22.57;41.82;99938.44;5299691;27;20430;-82
2021/08/29 11:35:27;;;;;;;1.12;1.00;;;;;;;22.32;42.86;99936.41;5318444;27;20057;-82
2021/08/29 11:38:03;;;;;;;1.12;1.02;;;;;;;22.39;42.07;99932.41;5300286;27;20060;-82
2021/08/29 11:40:47;;;;;;;1.85;1.15;;;;;;;22.33;42.62;99937.28;5299769;27;20426;-82